createdAt,value
2019-05-09T00:00:07.808Z,100220.73
2019-05-09T00:02:16.266Z,100220.01
2019-05-09T00:04:23.165Z,100211.76
2019-05-09T00:06:30.744Z,100215.38
2019-05-09T00:08:37.499Z,100215.42
2019-05-09T00:10:44.883Z,100205.70
2019-05-09T00:12:53.901Z,100211.89
2019-05-09T00:15:04.470Z,100208.86
2019-05-09T00:17:09.782Z,100204.14
2019-05-09T00:19:16.295Z,100209.03
2019-05-09T00:21:24.546Z,100203.86
2019-05-09T00:23:33.147Z,100203.86
2019-05-09T00:25:39.317Z,100198.89
2019-05-09T00:27:45.736Z,100205.50
2019-05-09T00:29:53.266Z,100198.20
2019-05-09T00:32:03.540Z,100198.86
2019-05-09T00:34:14.346Z,100193.20
2019-05-09T00:36:23.981Z,100185.61
2019-05-09T00:38:37.920Z,100186.11
2019-05-09T00:40:55.355Z,100182.13
2019-05-09T00:42:53.626Z,100181.80
2019-05-09T00:45:03.985Z,100181.44
2019-05-09T00:47:13.495Z,100169.25
2019-05-09T00:49:23.430Z,100171.15
2019-05-09T00:51:34.629Z,100168.66
2019-05-09T00:53:44.398Z,100174.81
2019-05-09T00:55:53.052Z,100168.91
2019-05-09T00:58:00.446Z,100166.28
2019-05-09T01:00:14.659Z,100164.97
2019-05-09T01:02:23.617Z,100163.25
2019-05-09T01:04:33.290Z,100161.73
2019-05-09T01:06:39.969Z,100161.05
2019-05-09T01:08:46.422Z,100164.72
2019-05-09T01:11:08.538Z,100168.00
2019-05-09T01:13:03.586Z,100164.91
2019-05-09T01:15:13.332Z,100166.15
2019-05-09T01:17:21.100Z,100166.23
2019-05-09T01:19:27.453Z,100163.00
2019-05-09T01:21:33.912Z,100154.80
2019-05-09T01:23:40.274Z,100145.61
2019-05-09T01:25:46.640Z,100153.98
2019-05-09T01:27:53.867Z,100149.27
2019-05-09T01:30:00.820Z,100136.65
2019-05-09T01:32:09.943Z,100145.83
2019-05-09T01:34:17.929Z,100138.36
2019-05-09T01:36:26.953Z,100135.34
2019-05-09T01:38:34.051Z,100142.42
2019-05-09T01:40:41.006Z,100137.95
2019-05-09T01:42:47.641Z,100132.21
2019-05-09T01:44:54.138Z,100124.80
2019-05-09T01:47:00.506Z,100121.64
2019-05-09T01:49:06.987Z,100118.19
2019-05-09T01:51:14.517Z,100113.84
2019-05-09T01:53:23.880Z,100117.91
2019-05-09T01:55:48.285Z,100118.28
2019-05-09T01:57:55.976Z,100110.41
2019-05-09T02:00:04.131Z,100116.19
2019-05-09T02:02:10.806Z,100119.14
2019-05-09T02:04:17.526Z,100113.44
2019-05-09T02:06:24.553Z,100111.80
2019-05-09T02:08:31.063Z,100102.63
2019-05-09T02:10:37.743Z,100100.91
2019-05-09T02:12:44.208Z,100105.29
2019-05-09T02:14:57.835Z,100102.67
2019-05-09T02:17:07.070Z,100100.86
2019-05-09T02:19:20.792Z,100101.72
2019-05-09T02:21:27.991Z,100091.81
2019-05-09T02:23:36.113Z,100094.52
2019-05-09T02:25:43.833Z,100087.67
2019-05-09T02:27:50.255Z,100086.87
2019-05-09T02:29:56.705Z,100083.42
2019-05-09T02:32:04.696Z,100083.42
2019-05-09T02:34:14.837Z,100079.94
2019-05-09T02:36:20.614Z,100077.69
2019-05-09T02:38:28.726Z,100076.00
2019-05-09T02:40:39.137Z,100078.63
2019-05-09T02:42:44.609Z,100079.94
2019-05-09T02:44:53.956Z,100070.35
2019-05-09T02:47:09.101Z,100069.12
2019-05-09T02:49:18.819Z,100066.54
2019-05-09T02:51:23.896Z,100053.95
2019-05-09T02:53:30.554Z,100049.66
2019-05-09T02:55:38.729Z,100056.76
2019-05-09T02:57:48.924Z,100059.33
2019-05-09T03:00:00.091Z,100056.70
2019-05-09T03:02:12.952Z,100060.64
2019-05-09T03:04:21.104Z,100060.23
2019-05-09T03:06:28.523Z,100046.27
2019-05-09T03:08:38.219Z,100058.47
2019-05-09T03:10:44.327Z,100058.39
2019-05-09T03:12:51.134Z,100059.20
2019-05-09T03:14:58.764Z,100052.56
2019-05-09T03:17:08.806Z,100055.52
2019-05-09T03:19:14.251Z,100050.76
2019-05-09T03:21:29.382Z,100048.51
2019-05-09T03:23:34.196Z,100044.52
2019-05-09T03:25:41.287Z,100053.70
2019-05-09T03:27:58.648Z,100055.02
2019-05-09T03:30:11.442Z,100051.36
2019-05-09T03:32:14.137Z,100044.32
2019-05-09T03:34:20.676Z,100048.34
2019-05-09T03:36:28.151Z,100044.52
2019-05-09T03:38:34.700Z,100044.98
2019-05-09T03:40:42.769Z,100048.46
2019-05-09T03:42:49.123Z,100045.97
2019-05-09T03:44:57.922Z,100051.26
2019-05-09T03:47:05.641Z,100043.80
2019-05-09T03:49:13.756Z,100044.58
2019-05-09T03:51:20.879Z,100043.72
2019-05-09T03:53:30.004Z,100043.09
2019-05-09T03:55:38.359Z,100039.07
2019-05-09T03:57:58.090Z,100039.02
2019-05-09T04:00:07.561Z,100038.12
2019-05-09T04:02:14.842Z,100030.16
2019-05-09T04:04:21.697Z,100024.06
2019-05-09T04:06:28.324Z,100025.00
2019-05-09T04:08:37.470Z,100025.69
2019-05-09T04:10:43.075Z,100024.83
2019-05-09T04:12:55.749Z,100034.41
2019-05-09T04:14:58.429Z,100027.27
2019-05-09T04:17:07.716Z,100033.50
2019-05-09T04:19:14.656Z,100029.36
2019-05-09T04:21:24.357Z,100030.63
2019-05-09T04:23:30.757Z,100026.15
2019-05-09T04:25:41.434Z,100019.09
2019-05-09T04:27:49.328Z,100012.90
2019-05-09T04:29:57.466Z,100008.78
2019-05-09T04:32:04.002Z,100012.05
2019-05-09T04:34:13.634Z,100013.09
2019-05-09T04:36:24.458Z,100016.52
2019-05-09T04:38:30.859Z,100008.19
2019-05-09T04:40:44.610Z,100013.36
2019-05-09T04:42:47.365Z,100006.61
2019-05-09T04:45:03.200Z,100005.66
2019-05-09T04:47:08.675Z,100003.90
2019-05-09T04:49:14.046Z,100004.36
2019-05-09T04:51:21.693Z,100005.89
2019-05-09T04:53:28.625Z,100004.30
2019-05-09T04:55:39.281Z,100011.86
2019-05-09T04:57:45.690Z,100004.48
2019-05-09T04:59:52.276Z,100003.53
2019-05-09T05:02:03.285Z,100009.15
2019-05-09T05:04:10.204Z,100005.56
2019-05-09T05:06:20.650Z,100002.86
2019-05-09T05:08:28.407Z,100007.70
2019-05-09T05:10:34.052Z,100005.80
2019-05-09T05:12:40.795Z,100006.47
2019-05-09T05:14:47.712Z,100004.89
2019-05-09T05:17:04.388Z,100004.61
2019-05-09T05:19:07.655Z,100005.16
2019-05-09T05:21:14.026Z,100002.98
2019-05-09T05:23:24.725Z,100003.58
2019-05-09T05:25:31.196Z,100000.36
2019-05-09T05:27:38.695Z,100000.08
2019-05-09T05:29:47.520Z,99993.12
2019-05-09T05:31:54.595Z,99998.50
2019-05-09T05:34:08.280Z,99987.55
2019-05-09T05:36:18.140Z,99984.73
2019-05-09T05:38:27.525Z,99989.76
2019-05-09T05:40:34.077Z,99979.92
2019-05-09T05:42:41.867Z,99990.02
2019-05-09T05:44:48.562Z,99986.08
2019-05-09T05:47:08.716Z,99989.28
2019-05-09T05:49:15.283Z,99985.14
2019-05-09T05:51:21.855Z,99983.58
2019-05-09T05:53:28.225Z,99982.14
2019-05-09T05:55:34.675Z,99993.64
2019-05-09T05:57:42.685Z,99990.75
2019-05-09T05:59:49.045Z,99986.63
2019-05-09T06:01:58.083Z,99985.03
2019-05-09T06:04:03.931Z,99994.55
2019-05-09T06:06:10.445Z,99986.16
2019-05-09T06:08:17.527Z,99989.30
2019-05-09T06:10:24.038Z,99984.91
2019-05-09T06:12:30.602Z,99992.87
2019-05-09T06:14:37.828Z,99990.93
2019-05-09T06:16:44.655Z,99994.53
2019-05-09T06:18:51.231Z,99995.98
2019-05-09T06:20:58.459Z,99993.81
2019-05-09T06:23:05.075Z,99993.36
2019-05-09T06:25:12.327Z,99985.22
2019-05-09T06:27:19.037Z,99990.42
2019-05-09T06:29:28.595Z,99994.03
2019-05-09T06:31:37.513Z,99988.61
2019-05-09T06:33:47.209Z,99990.00
2019-05-09T06:35:52.362Z,99993.00
2019-05-09T06:37:59.219Z,99984.97
2019-05-09T06:40:08.087Z,99985.66
2019-05-09T06:42:14.853Z,99992.83
2019-05-09T06:44:40.852Z,99996.38
2019-05-09T06:46:52.035Z,99990.80
2019-05-09T06:49:20.569Z,99988.80
2019-05-09T06:51:09.469Z,99990.12
2019-05-09T06:53:18.095Z,99992.31
2019-05-09T06:55:24.235Z,99991.91
2019-05-09T06:57:30.788Z,99986.43
2019-05-09T06:59:38.504Z,99979.77
2019-05-09T07:01:52.403Z,99988.31
2019-05-09T07:04:00.443Z,99975.42
2019-05-09T07:06:19.203Z,99979.94
2019-05-09T07:08:31.188Z,99971.15
2019-05-09T07:10:37.732Z,99978.98
2019-05-09T07:12:43.919Z,99980.13
2019-05-09T07:14:50.275Z,99976.11
2019-05-09T07:16:58.446Z,99977.36
2019-05-09T07:19:05.105Z,99978.92
2019-05-09T07:21:11.675Z,99979.45
2019-05-09T07:23:18.985Z,99987.91
2019-05-09T07:25:29.725Z,99979.83
2019-05-09T07:27:39.704Z,99984.88
2019-05-09T07:29:48.115Z,99980.69
2019-05-09T07:31:57.311Z,99983.24
2019-05-09T07:34:05.672Z,99988.52
2019-05-09T07:36:14.395Z,99990.14
2019-05-09T07:38:33.966Z,99988.34
2019-05-09T07:40:40.320Z,99995.48
2019-05-09T07:42:47.962Z,99995.61
2019-05-09T07:44:54.769Z,99988.13
2019-05-09T07:47:03.406Z,99996.86
2019-05-09T07:49:10.012Z,99995.33
2019-05-09T07:51:18.076Z,99993.84
2019-05-09T07:53:24.655Z,99997.27
2019-05-09T07:55:31.310Z,100001.21
2019-05-09T07:57:46.845Z,100006.61
2019-05-09T07:59:48.436Z,100000.53
2019-05-09T08:01:55.011Z,100003.69
2019-05-09T08:04:01.591Z,100004.11
2019-05-09T08:06:08.973Z,100003.91
2019-05-09T08:08:19.314Z,100009.02
2019-05-09T08:10:28.657Z,99999.43
2019-05-09T08:12:33.985Z,100003.48
2019-05-09T08:14:40.355Z,100009.27
2019-05-09T08:16:47.524Z,100006.52
2019-05-09T08:18:54.271Z,100008.33
2019-05-09T08:21:00.822Z,100009.44
2019-05-09T08:23:08.896Z,100005.70
2019-05-09T08:25:17.738Z,100009.52
2019-05-09T08:27:23.744Z,100006.27
2019-05-09T08:29:31.236Z,100007.02
2019-05-09T08:31:40.086Z,100011.19
2019-05-09T08:33:48.291Z,100009.27
2019-05-09T08:35:58.314Z,100010.66
2019-05-09T08:38:01.999Z,100011.05
2019-05-09T08:40:08.937Z,100012.51
2019-05-09T08:42:18.042Z,100013.00
2019-05-09T08:44:23.671Z,100019.47
2019-05-09T08:46:30.703Z,100016.78
2019-05-09T08:48:37.976Z,100010.45
2019-05-09T08:50:48.198Z,100008.39
2019-05-09T08:52:54.139Z,100015.00
2019-05-09T08:55:00.811Z,100012.38
2019-05-09T08:57:07.760Z,100012.95
2019-05-09T08:59:18.284Z,100019.63
2019-05-09T09:01:31.177Z,100015.88
2019-05-09T09:03:32.942Z,100006.63
2019-05-09T09:05:42.833Z,100010.88
2019-05-09T09:07:49.426Z,100015.81
2019-05-09T09:09:57.709Z,100002.75
2019-05-09T09:12:04.051Z,100006.66
2019-05-09T09:14:10.664Z,100009.28
2019-05-09T09:16:22.249Z,100007.98
2019-05-09T09:18:28.258Z,100006.81
2019-05-09T09:20:34.754Z,100010.42
2019-05-09T09:22:41.628Z,100010.73
2019-05-09T09:24:48.397Z,100009.55
2019-05-09T09:26:57.270Z,100000.52
2019-05-09T09:29:03.167Z,100008.23
2019-05-09T09:31:10.864Z,100006.23
2019-05-09T09:33:17.675Z,100002.83
2019-05-09T09:35:24.105Z,100004.91
2019-05-09T09:37:44.989Z,100003.13
2019-05-09T09:39:44.588Z,100003.41
2019-05-09T09:41:48.294Z,99998.66
2019-05-09T09:43:54.647Z,99999.15
2019-05-09T09:46:10.850Z,99997.33
2019-05-09T09:48:09.345Z,100007.63
2019-05-09T09:50:17.692Z,100002.05
2019-05-09T09:52:24.209Z,100007.02
2019-05-09T09:54:30.784Z,99998.63
2019-05-09T09:56:38.625Z,99997.41
2019-05-09T09:58:48.342Z,99997.30
2019-05-09T10:01:08.822Z,99998.06
2019-05-09T10:03:14.875Z,100001.95
2019-05-09T10:05:21.381Z,100004.03
2019-05-09T10:07:28.006Z,100004.33
2019-05-09T10:09:34.460Z,100005.44
2019-05-09T10:11:42.480Z,100008.59
2019-05-09T10:13:51.903Z,99996.38
2019-05-09T10:16:08.424Z,100007.02
2019-05-09T10:18:31.856Z,100008.98
2019-05-09T10:20:49.379Z,100003.70
2019-05-09T10:23:08.658Z,100012.66
2019-05-09T10:25:04.489Z,100010.14
2019-05-09T10:27:18.286Z,100008.39
2019-05-09T10:29:23.942Z,100011.20
2019-05-09T10:31:31.003Z,100007.77
2019-05-09T10:33:37.698Z,100003.48
2019-05-09T10:35:44.380Z,99997.28
2019-05-09T10:37:50.936Z,99997.52
2019-05-09T10:39:58.201Z,99994.23
2019-05-09T10:42:24.980Z,99996.41
2019-05-09T10:44:33.079Z,99992.20
2019-05-09T10:46:52.584Z,99995.65
2019-05-09T10:48:53.357Z,99997.67
2019-05-09T10:51:04.774Z,99999.95
2019-05-09T10:53:10.163Z,99996.67
2019-05-09T10:55:17.932Z,99989.91
2019-05-09T10:57:30.207Z,99986.02
2019-05-09T10:59:34.247Z,99988.04
2019-05-09T11:01:41.940Z,99985.83
2019-05-09T11:03:49.589Z,99995.05
2019-05-09T11:05:57.960Z,99992.44
2019-05-09T11:08:04.444Z,99989.83
2019-05-09T11:10:24.432Z,99990.63
2019-05-09T11:12:19.745Z,99992.25
2019-05-09T11:14:36.106Z,99988.72
2019-05-09T11:16:45.536Z,99989.83
2019-05-09T11:18:42.644Z,99984.34
2019-05-09T11:20:51.765Z,99991.11
2019-05-09T11:22:58.385Z,99981.97
2019-05-09T11:25:08.605Z,99977.73
2019-05-09T11:27:14.143Z,99969.27
2019-05-09T11:29:20.679Z,99969.73
2019-05-09T11:31:29.120Z,99963.37
2019-05-09T11:33:34.940Z,99953.86
2019-05-09T11:35:42.645Z,99953.21
2019-05-09T11:37:49.222Z,99949.59
2019-05-09T11:39:58.078Z,99956.44
2019-05-09T11:42:05.090Z,99946.05
2019-05-09T11:44:11.364Z,99952.06
2019-05-09T11:46:18.439Z,99953.59
2019-05-09T11:48:25.021Z,99952.28
2019-05-09T11:50:33.667Z,99960.95
2019-05-09T11:52:40.177Z,99954.35
2019-05-09T11:54:48.166Z,99959.23
2019-05-09T11:56:54.675Z,99957.66
2019-05-09T11:59:01.125Z,99954.12
2019-05-09T12:01:09.002Z,99951.45
2019-05-09T12:03:16.041Z,99953.30
2019-05-09T12:05:22.698Z,99952.59
2019-05-09T12:07:29.105Z,99943.31
2019-05-09T12:09:38.360Z,99942.55
2019-05-09T12:11:44.773Z,99943.58
2019-05-09T12:13:51.336Z,99948.67
2019-05-09T12:15:58.510Z,99945.94
2019-05-09T12:18:09.118Z,99944.70
2019-05-09T12:20:13.872Z,99953.30
2019-05-09T12:22:20.262Z,99947.53
2019-05-09T12:24:29.429Z,99943.38
2019-05-09T12:26:35.410Z,99944.62
2019-05-09T12:28:41.880Z,99946.88
2019-05-09T12:30:48.951Z,99943.45
2019-05-09T12:32:55.422Z,99947.39
2019-05-09T12:35:02.760Z,99942.44
2019-05-09T12:37:09.581Z,99943.38
2019-05-09T12:39:18.756Z,99941.20
2019-05-09T12:41:24.252Z,99944.16
2019-05-09T12:43:30.506Z,99939.42
2019-05-09T12:45:38.743Z,99938.69
2019-05-09T12:47:45.079Z,99945.09
2019-05-09T12:49:54.482Z,99936.53
2019-05-09T12:52:00.791Z,99933.82
2019-05-09T12:54:08.533Z,99936.23
2019-05-09T12:56:15.360Z,99936.61
2019-05-09T12:58:30.855Z,99940.48
2019-05-09T13:00:38.462Z,99935.55
2019-05-09T13:02:44.895Z,99937.34
2019-05-09T13:04:51.265Z,99932.55
2019-05-09T13:06:58.706Z,99947.16
2019-05-09T13:09:08.350Z,99942.95
2019-05-09T13:11:18.752Z,99941.99
2019-05-09T13:13:30.221Z,99937.48
2019-05-09T13:15:39.245Z,99937.63
2019-05-09T13:17:48.009Z,99940.95
2019-05-09T13:19:54.439Z,99936.51
2019-05-09T13:22:01.303Z,99936.40
2019-05-09T13:24:08.581Z,99933.11
2019-05-09T13:26:18.677Z,99940.55
2019-05-09T13:28:24.800Z,99939.58
2019-05-09T13:30:31.247Z,99938.23
2019-05-09T13:32:37.814Z,99932.99
2019-05-09T13:34:44.693Z,99942.80
2019-05-09T13:36:51.566Z,99936.31
2019-05-09T13:39:04.654Z,99939.86
2019-05-09T13:41:08.597Z,99936.83
2019-05-09T13:43:15.273Z,99935.53
2019-05-09T13:45:21.752Z,99941.16
2019-05-09T13:47:28.214Z,99936.25
2019-05-09T13:49:34.984Z,99936.67
2019-05-09T13:51:48.721Z,99932.84
2019-05-09T13:53:49.642Z,99928.75
2019-05-09T13:55:57.834Z,99927.75
2019-05-09T13:58:03.981Z,99933.67
2019-05-09T14:00:11.285Z,99934.67
2019-05-09T14:02:18.888Z,99931.14
2019-05-09T14:04:28.650Z,99928.78
2019-05-09T14:06:34.991Z,99929.57
2019-05-09T14:08:41.266Z,99928.00
2019-05-09T14:10:48.439Z,99929.63
2019-05-09T14:13:06.881Z,99920.58
2019-05-09T14:15:08.478Z,99922.28
2019-05-09T14:17:14.569Z,99916.41
2019-05-09T14:19:31.724Z,99918.69
2019-05-09T14:21:29.990Z,99912.51
2019-05-09T14:23:48.145Z,99908.95
2019-05-09T14:25:51.326Z,99898.02
2019-05-09T14:27:57.053Z,99906.05
2019-05-09T14:30:03.839Z,99902.70
2019-05-09T14:32:10.414Z,99908.50
2019-05-09T14:34:19.700Z,99909.89
2019-05-09T14:36:27.745Z,99917.52
2019-05-09T14:38:36.055Z,99917.41
2019-05-09T14:40:43.833Z,99920.98
2019-05-09T14:42:51.728Z,99924.05
2019-05-09T14:44:58.508Z,99919.02
2019-05-09T14:47:05.064Z,99914.89
2019-05-09T14:49:13.072Z,99921.23
2019-05-09T14:51:19.454Z,99910.32
2019-05-09T14:53:28.155Z,99908.25
2019-05-09T14:55:38.625Z,99899.44
2019-05-09T14:57:44.054Z,99904.84
2019-05-09T14:59:50.613Z,99903.45
2019-05-09T15:01:59.103Z,99897.89
2019-05-09T15:04:05.915Z,99888.73
2019-05-09T15:06:12.255Z,99890.39
2019-05-09T15:08:21.793Z,99891.86
2019-05-09T15:10:28.254Z,99889.25
2019-05-09T15:12:38.777Z,99889.81
2019-05-09T15:14:47.855Z,99893.88
2019-05-09T15:16:53.671Z,99894.63
2019-05-09T15:18:59.965Z,99898.88
2019-05-09T15:21:07.979Z,99897.91
2019-05-09T15:23:14.410Z,99887.75
2019-05-09T15:25:21.161Z,99894.81
2019-05-09T15:27:27.817Z,99893.95
2019-05-09T15:29:34.441Z,99893.64
2019-05-09T15:31:41.068Z,99896.49
2019-05-09T15:33:49.657Z,99893.64
2019-05-09T15:35:59.049Z,99884.34
2019-05-09T15:38:08.368Z,99892.57
2019-05-09T15:40:14.070Z,99881.73
2019-05-09T15:42:20.617Z,99884.41
2019-05-09T15:44:28.804Z,99897.06
2019-05-09T15:46:38.400Z,99887.37
2019-05-09T15:48:45.011Z,99891.22
2019-05-09T15:50:59.436Z,99900.63
2019-05-09T15:53:08.549Z,99898.59
2019-05-09T15:55:18.958Z,99895.84
2019-05-09T15:57:27.791Z,99895.23
2019-05-09T15:59:38.757Z,99895.32
2019-05-09T16:01:45.983Z,99894.96
2019-05-09T16:03:55.061Z,99896.81
2019-05-09T16:06:05.697Z,99896.34
2019-05-09T16:08:12.603Z,99896.45
2019-05-09T16:10:19.259Z,99892.16
2019-05-09T16:12:27.810Z,99892.23
2019-05-09T16:14:34.546Z,99887.23
2019-05-09T16:16:42.328Z,99890.11
2019-05-09T16:18:49.374Z,99891.03
2019-05-09T16:20:58.075Z,99892.62
2019-05-09T16:23:04.800Z,99893.08
2019-05-09T16:25:11.737Z,99885.86
2019-05-09T16:27:18.587Z,99889.54
2019-05-09T16:29:25.356Z,99890.39
2019-05-09T16:31:38.811Z,99885.35
2019-05-09T16:33:47.989Z,99888.11
2019-05-09T16:35:58.067Z,99890.67
2019-05-09T16:38:10.438Z,99891.36
2019-05-09T16:40:15.643Z,99889.01
2019-05-09T16:42:22.146Z,99886.27
2019-05-09T16:44:28.570Z,99888.22
2019-05-09T16:46:37.643Z,99885.13
2019-05-09T16:48:47.517Z,99883.73
2019-05-09T16:51:04.152Z,99880.18
2019-05-09T16:53:02.011Z,99887.69
2019-05-09T16:55:10.467Z,99886.25
2019-05-09T16:57:18.249Z,99875.83
2019-05-09T16:59:27.899Z,99882.88
2019-05-09T17:01:39.484Z,99878.34
2019-05-09T17:03:45.566Z,99878.52
2019-05-09T17:05:52.372Z,99883.23
2019-05-09T17:07:58.774Z,99880.55
2019-05-09T17:10:08.400Z,99876.59
2019-05-09T17:12:15.601Z,99882.09
2019-05-09T17:14:22.138Z,99875.78
2019-05-09T17:16:28.977Z,99882.25
2019-05-09T17:18:38.169Z,99884.20
2019-05-09T17:20:50.048Z,99883.51
2019-05-09T17:23:14.305Z,99885.81
2019-05-09T17:25:18.716Z,99884.30
2019-05-09T17:27:28.119Z,99888.59
2019-05-09T17:29:34.638Z,99885.34
2019-05-09T17:31:42.524Z,99886.88
2019-05-09T17:33:52.388Z,99888.47
2019-05-09T17:36:04.259Z,99891.16
2019-05-09T17:38:14.753Z,99894.81
2019-05-09T17:40:29.335Z,99900.64
2019-05-09T17:42:40.704Z,99895.53
2019-05-09T17:44:51.900Z,99898.80
2019-05-09T17:46:58.464Z,99903.66
2019-05-09T17:49:08.109Z,99899.77
2019-05-09T17:51:25.947Z,99899.41
2019-05-09T17:53:24.411Z,99902.11
2019-05-09T17:55:32.418Z,99902.27
2019-05-09T17:57:40.344Z,99905.23
2019-05-09T17:59:48.765Z,99898.34
2019-05-09T18:01:57.813Z,99906.24
2019-05-09T18:04:04.604Z,99904.07
2019-05-09T18:06:11.399Z,99904.69
2019-05-09T18:08:18.779Z,99910.51
2019-05-09T18:10:26.259Z,99910.57
2019-05-09T18:12:32.833Z,99909.81
2019-05-09T18:14:39.792Z,99910.42
2019-05-09T18:16:47.804Z,99908.66
2019-05-09T18:18:58.708Z,99906.18
2019-05-09T18:21:08.509Z,99908.02
2019-05-09T18:23:17.686Z,99908.11
2019-05-09T18:25:24.933Z,99913.53
2019-05-09T18:27:32.643Z,99907.02
2019-05-09T18:29:40.749Z,99908.80
2019-05-09T18:31:54.663Z,99906.72
2019-05-09T18:34:04.108Z,99906.32
2019-05-09T18:36:12.069Z,99912.89
2019-05-09T18:38:34.484Z,99909.87
2019-05-09T18:40:41.111Z,99913.45
2019-05-09T18:42:48.079Z,99913.52
2019-05-09T18:44:56.491Z,99915.28
2019-05-09T18:47:04.302Z,99912.29
2019-05-09T18:49:12.406Z,99916.30
2019-05-09T18:51:19.082Z,99911.13
2019-05-09T18:53:26.321Z,99912.51
2019-05-09T18:55:33.608Z,99909.87
2019-05-09T18:57:40.486Z,99913.91
2019-05-09T18:59:48.541Z,99919.20
2019-05-09T19:01:55.394Z,99914.86
2019-05-09T19:04:03.926Z,99918.90
2019-05-09T19:06:11.901Z,99911.87
2019-05-09T19:08:18.569Z,99920.67
2019-05-09T19:10:26.947Z,99918.59
2019-05-09T19:12:36.770Z,99916.02
2019-05-09T19:14:45.392Z,99909.05
2019-05-09T19:16:53.569Z,99914.86
2019-05-09T19:19:03.413Z,99915.32
2019-05-09T19:21:15.129Z,99908.29
2019-05-09T19:23:22.053Z,99904.04
2019-05-09T19:25:28.644Z,99909.36
2019-05-09T19:27:35.654Z,99906.42
2019-05-09T19:29:42.485Z,99906.48
2019-05-09T19:31:49.835Z,99908.29
2019-05-09T19:33:56.869Z,99914.16
2019-05-09T19:36:03.434Z,99905.02
2019-05-09T19:38:10.193Z,99907.80
2019-05-09T19:40:20.182Z,99908.66
2019-05-09T19:42:27.003Z,99903.45
2019-05-09T19:44:33.721Z,99902.30
2019-05-09T19:46:40.680Z,99899.36
2019-05-09T19:48:47.524Z,99896.33
2019-05-09T19:50:57.297Z,99897.28
2019-05-09T19:53:05.105Z,99903.00
2019-05-09T19:55:12.693Z,99904.61
2019-05-09T19:57:21.903Z,99904.27
2019-05-09T19:59:28.759Z,99906.28
2019-05-09T20:01:36.553Z,99909.45
2019-05-09T20:03:43.239Z,99904.72
2019-05-09T20:05:50.050Z,99901.47
2019-05-09T20:07:56.609Z,99903.30
2019-05-09T20:10:09.777Z,99905.22
2019-05-09T20:12:25.860Z,99899.20
2019-05-09T20:14:37.239Z,99901.97
2019-05-09T20:16:57.926Z,99894.15
2019-05-09T20:19:04.681Z,99897.62
2019-05-09T20:21:11.217Z,99901.11
2019-05-09T20:23:17.642Z,99906.37
2019-05-09T20:25:25.230Z,99904.28
2019-05-09T20:27:31.994Z,99907.23
2019-05-09T20:29:38.549Z,99912.94
2019-05-09T20:31:45.431Z,99913.80
2019-05-09T20:33:53.442Z,99911.22
2019-05-09T20:36:00.283Z,99910.77
2019-05-09T20:38:09.535Z,99911.22
2019-05-09T20:40:16.896Z,99912.94
2019-05-09T20:42:24.658Z,99910.70
2019-05-09T20:44:32.840Z,99916.36
2019-05-09T20:46:40.631Z,99913.73
2019-05-09T20:48:50.508Z,99913.73
2019-05-09T20:50:58.695Z,99914.19
2019-05-09T20:53:09.497Z,99912.02
2019-05-09T20:55:14.297Z,99911.22
2019-05-09T20:57:21.133Z,99908.74
2019-05-09T20:59:28.091Z,99901.95
2019-05-09T21:01:34.701Z,99908.52
2019-05-09T21:03:41.472Z,99910.34
2019-05-09T21:05:48.364Z,99909.17
2019-05-09T21:07:54.909Z,99911.03
2019-05-09T21:10:02.582Z,99915.12
2019-05-09T21:12:11.136Z,99912.64
2019-05-09T21:14:17.359Z,99919.66
2019-05-09T21:16:24.025Z,99924.05
2019-05-09T21:18:31.482Z,99916.23
2019-05-09T21:20:38.195Z,99921.57
2019-05-09T21:22:44.926Z,99923.02
2019-05-09T21:24:52.874Z,99920.45
2019-05-09T21:26:59.735Z,99920.55
2019-05-09T21:29:08.166Z,99925.84
2019-05-09T21:31:16.143Z,99919.02
2019-05-09T21:33:23.388Z,99927.84
2019-05-09T21:35:29.923Z,99934.91
2019-05-09T21:37:36.513Z,99932.37
2019-05-09T21:39:42.968Z,99937.55
2019-05-09T21:41:49.424Z,99936.17
2019-05-09T21:43:57.641Z,99940.43
2019-05-09T21:46:05.639Z,99943.00
2019-05-09T21:48:12.172Z,99948.11
2019-05-09T21:50:19.153Z,99949.34
2019-05-09T21:52:27.343Z,99955.77
2019-05-09T21:54:34.252Z,99946.11
2019-05-09T21:56:41.214Z,99953.08
2019-05-09T21:58:47.578Z,99949.14
2019-05-09T22:00:58.315Z,99948.69
2019-05-09T22:03:06.519Z,99947.42
2019-05-09T22:05:13.190Z,99943.89
2019-05-09T22:07:19.845Z,99951.31
2019-05-09T22:09:26.441Z,99953.94
2019-05-09T22:11:33.013Z,99950.37
2019-05-09T22:13:39.996Z,99945.97
2019-05-09T22:15:48.215Z,99942.44
2019-05-09T22:17:54.773Z,99938.55
2019-05-09T22:20:01.630Z,99943.75
2019-05-09T22:22:08.130Z,99947.74
2019-05-09T22:24:14.677Z,99942.98
2019-05-09T22:26:23.932Z,99947.37
2019-05-09T22:28:30.288Z,99946.52
2019-05-09T22:30:36.828Z,99946.11
2019-05-09T22:32:44.742Z,99940.14
2019-05-09T22:34:52.818Z,99940.60
2019-05-09T22:36:59.207Z,99942.05
2019-05-09T22:39:08.742Z,99944.83
2019-05-09T22:41:15.299Z,99936.37
2019-05-09T22:43:21.991Z,99939.13
2019-05-09T22:45:28.740Z,99933.16
2019-05-09T22:47:36.753Z,99932.91
2019-05-09T22:49:43.130Z,99940.00
2019-05-09T22:51:49.682Z,99947.11
2019-05-09T22:54:11.694Z,99944.85
2019-05-09T22:56:05.752Z,99940.45
2019-05-09T22:58:12.151Z,99948.28
2019-05-09T23:00:19.154Z,99947.69
2019-05-09T23:02:26.736Z,99946.83
2019-05-09T23:04:33.081Z,99944.52
2019-05-09T23:06:42.614Z,99948.00
2019-05-09T23:08:48.983Z,99946.23
2019-05-09T23:10:55.350Z,99947.55
2019-05-09T23:13:01.943Z,99944.98
2019-05-09T23:15:10.653Z,99945.84
2019-05-09T23:17:23.691Z,99941.98
2019-05-09T23:19:34.732Z,99944.61
2019-05-09T23:21:43.965Z,99940.67
2019-05-09T23:24:02.742Z,99939.00
2019-05-09T23:26:12.246Z,99938.16
2019-05-09T23:28:21.969Z,99940.32
2019-05-09T23:30:28.447Z,99935.93
2019-05-09T23:32:40.678Z,99935.07
2019-05-09T23:34:47.425Z,99934.61
2019-05-09T23:36:53.796Z,99940.19
2019-05-09T23:39:15.180Z,99938.81
2019-05-09T23:41:21.568Z,99935.79
2019-05-09T23:43:30.605Z,99944.06
2019-05-09T23:45:38.703Z,99936.59
2019-05-09T23:47:45.061Z,99939.98
2019-05-09T23:49:51.426Z,99939.08
2019-05-09T23:51:57.886Z,99936.05
2019-05-09T23:54:03.430Z,99936.51
2019-05-09T23:56:27.608Z,99929.49
2019-05-09T23:58:51.989Z,99928.72
